createdAt,value
2022-11-17T00:00:34.752Z,12.90
2022-11-17T00:03:02.053Z,12.90
2022-11-17T00:05:29.414Z,12.90
2022-11-17T00:07:56.823Z,12.90
2022-11-17T00:10:24.150Z,12.90
2022-11-17T00:13:10.507Z,12.90
2022-11-17T00:15:37.964Z,12.90
2022-11-17T00:18:24.103Z,12.90
2022-11-17T00:21:09.916Z,12.90
2022-11-17T00:23:50.399Z,12.90
2022-11-17T00:26:23.918Z,12.90
2022-11-17T00:28:55.941Z,12.90
2022-11-17T00:31:43.202Z,12.90
2022-11-17T00:34:16.632Z,12.80
2022-11-17T00:36:46.423Z,12.80
2022-11-17T00:39:15.049Z,12.80
2022-11-17T00:41:42.390Z,12.70
2022-11-17T00:44:10.488Z,12.80
2022-11-17T00:46:38.681Z,12.70
2022-11-17T00:49:07.584Z,12.80
2022-11-17T00:51:35.661Z,12.70
2022-11-17T00:54:04.517Z,12.70
2022-11-17T00:56:32.053Z,12.70
2022-11-17T00:58:59.708Z,12.70
2022-11-17T01:01:27.857Z,12.70
2022-11-17T01:04:02.944Z,12.70
2022-11-17T01:06:39.528Z,12.70
2022-11-17T01:09:13.003Z,12.70
2022-11-17T01:11:41.362Z,12.70
2022-11-17T01:14:15.768Z,12.70
2022-11-17T01:16:43.769Z,12.60
2022-11-17T01:19:12.920Z,12.70
2022-11-17T01:21:40.500Z,12.70
2022-11-17T01:24:08.091Z,12.70
2022-11-17T01:26:36.851Z,12.60
2022-11-17T01:29:05.344Z,12.70
2022-11-17T01:31:35.888Z,12.70
2022-11-17T01:34:03.437Z,12.60
2022-11-17T01:36:58.338Z,12.60
2022-11-17T01:39:27.440Z,12.60
2022-11-17T01:41:55.215Z,12.60
2022-11-17T01:44:44.628Z,12.60
2022-11-17T01:47:18.940Z,12.60
2022-11-17T01:49:47.241Z,12.60
2022-11-17T01:52:15.653Z,12.60
2022-11-17T01:54:46.236Z,12.70
2022-11-17T01:57:22.919Z,12.70
2022-11-17T01:59:56.617Z,12.60
2022-11-17T02:02:24.108Z,12.60
2022-11-17T02:05:04.599Z,12.60
2022-11-17T02:07:35.435Z,12.60
2022-11-17T02:10:04.915Z,12.60
2022-11-17T02:12:33.841Z,12.60
2022-11-17T02:15:02.538Z,12.50
2022-11-17T02:17:39.723Z,12.50
2022-11-17T02:20:30.628Z,12.50
2022-11-17T02:23:38.227Z,12.50
2022-11-17T02:26:24.790Z,12.50
2022-11-17T02:29:10.261Z,12.50
2022-11-17T02:31:53.580Z,12.50
2022-11-17T02:34:50.033Z,12.40
2022-11-17T02:37:55.023Z,12.40
2022-11-17T02:40:29.473Z,13.00
2022-11-17T02:43:32.762Z,12.40
2022-11-17T02:46:16.457Z,12.50
2022-11-17T02:48:53.367Z,12.40
2022-11-17T02:51:24.238Z,12.40
2022-11-17T02:53:54.929Z,12.40
2022-11-17T02:56:22.889Z,12.30
2022-11-17T02:58:54.290Z,12.30
2022-11-17T03:01:30.405Z,12.30
2022-11-17T03:04:00.719Z,12.30
2022-11-17T03:06:57.871Z,12.30
2022-11-17T03:09:51.211Z,12.30
2022-11-17T03:12:34.192Z,12.30
2022-11-17T03:15:22.575Z,12.30
2022-11-17T03:18:35.202Z,12.30
2022-11-17T03:21:31.073Z,12.30
2022-11-17T03:24:04.269Z,12.30
2022-11-17T03:26:35.574Z,12.30
2022-11-17T03:29:06.714Z,12.30
2022-11-17T03:31:35.404Z,12.30
2022-11-17T03:34:07.175Z,12.20
2022-11-17T03:36:36.779Z,12.20
2022-11-17T03:39:28.851Z,12.20
2022-11-17T03:42:10.140Z,12.20
2022-11-17T03:44:41.472Z,12.10
2022-11-17T03:47:12.572Z,12.20
2022-11-17T03:50:01.881Z,12.10
2022-11-17T03:52:30.705Z,12.10
2022-11-17T03:54:58.241Z,12.10
2022-11-17T03:58:02.741Z,12.10
2022-11-17T04:00:30.821Z,12.10
2022-11-17T04:03:01.124Z,12.10
2022-11-17T04:05:28.641Z,12.10
2022-11-17T04:07:55.996Z,12.10
2022-11-17T04:10:25.847Z,12.10
2022-11-17T04:13:12.544Z,12.10
2022-11-17T04:15:58.947Z,12.10
2022-11-17T04:18:27.277Z,12.10
2022-11-17T04:20:56.677Z,12.10
2022-11-17T04:23:25.003Z,12.10
2022-11-17T04:26:13.419Z,12.00
2022-11-17T04:28:47.455Z,12.10
2022-11-17T04:31:17.852Z,12.10
2022-11-17T04:33:49.440Z,12.10
2022-11-17T04:36:19.358Z,12.00
2022-11-17T04:38:49.118Z,12.00
2022-11-17T04:41:37.010Z,12.00
2022-11-17T04:44:05.990Z,12.00
2022-11-17T04:46:34.923Z,12.00
2022-11-17T04:49:02.956Z,12.00
2022-11-17T04:51:30.921Z,12.00
2022-11-17T04:53:58.496Z,12.00
2022-11-17T04:56:26.397Z,12.00
2022-11-17T04:58:54.138Z,12.00
2022-11-17T05:01:22.760Z,12.00
2022-11-17T05:04:01.267Z,12.00
2022-11-17T05:06:40.131Z,12.00
2022-11-17T05:09:13.223Z,12.00
2022-11-17T05:11:59.347Z,12.00
2022-11-17T05:14:27.805Z,12.00
2022-11-17T05:17:11.816Z,12.00
2022-11-17T05:19:44.453Z,12.00
2022-11-17T05:22:33.141Z,12.00
2022-11-17T05:25:00.737Z,12.00
2022-11-17T05:27:28.147Z,12.00
2022-11-17T05:29:55.474Z,12.00
2022-11-17T05:32:22.823Z,12.00
2022-11-17T05:34:50.192Z,12.00
2022-11-17T05:37:17.602Z,12.00
2022-11-17T05:39:44.987Z,12.00
2022-11-17T05:42:12.400Z,12.00
2022-11-17T05:44:40.155Z,12.00
2022-11-17T05:47:07.537Z,12.00
2022-11-17T05:49:34.907Z,12.00
2022-11-17T05:52:02.330Z,12.00
2022-11-17T05:54:29.671Z,12.00
2022-11-17T05:57:12.097Z,12.00
2022-11-17T05:59:45.495Z,11.90
2022-11-17T06:02:18.777Z,12.00
2022-11-17T06:04:48.591Z,11.90
2022-11-17T06:07:17.920Z,11.90
2022-11-17T06:09:46.568Z,12.00
2022-11-17T06:12:15.372Z,12.00
2022-11-17T06:14:43.062Z,12.00
2022-11-17T06:17:23.212Z,12.00
2022-11-17T06:20:02.665Z,12.00
2022-11-17T06:22:31.028Z,12.00
2022-11-17T06:24:59.404Z,12.00
2022-11-17T06:27:27.218Z,12.00
2022-11-17T06:29:55.928Z,12.00
2022-11-17T06:32:23.494Z,12.00
2022-11-17T06:34:55.632Z,12.00
2022-11-17T06:37:24.830Z,12.00
2022-11-17T06:39:52.702Z,12.00
2022-11-17T06:42:40.018Z,12.00
2022-11-17T06:45:07.936Z,12.00
2022-11-17T06:47:35.380Z,12.00
2022-11-17T06:50:03.128Z,12.00
2022-11-17T06:52:30.563Z,12.00
2022-11-17T06:54:57.821Z,12.10
2022-11-17T06:57:25.205Z,12.10
2022-11-17T06:59:52.749Z,12.20
2022-11-17T07:02:20.083Z,12.20
2022-11-17T07:04:47.519Z,12.20
2022-11-17T07:07:14.921Z,12.20
2022-11-17T07:09:42.392Z,12.10
2022-11-17T07:12:09.761Z,12.20
2022-11-17T07:14:37.220Z,12.20
2022-11-17T07:17:04.568Z,12.20
2022-11-17T07:19:31.941Z,12.20
2022-11-17T07:21:59.330Z,12.20
2022-11-17T07:24:26.743Z,12.30
2022-11-17T07:26:54.147Z,12.30
2022-11-17T07:29:21.694Z,12.40
2022-11-17T07:31:49.185Z,12.40
2022-11-17T07:34:16.588Z,12.50
2022-11-17T07:36:43.976Z,12.50
2022-11-17T07:39:14.955Z,12.60
2022-11-17T07:41:45.137Z,12.60
2022-11-17T07:44:12.592Z,12.70
2022-11-17T07:46:39.930Z,12.70
2022-11-17T07:49:07.261Z,12.70
2022-11-17T07:51:34.576Z,12.80
2022-11-17T07:54:02.054Z,12.90
2022-11-17T07:56:29.375Z,12.90
2022-11-17T07:58:56.736Z,12.90
2022-11-17T08:01:27.387Z,12.90
2022-11-17T08:03:55.469Z,12.90
2022-11-17T08:06:23.985Z,13.00
2022-11-17T08:08:51.811Z,13.00
2022-11-17T08:11:19.772Z,13.00
2022-11-17T08:13:47.099Z,13.00
2022-11-17T08:16:14.565Z,13.10
2022-11-17T08:18:45.974Z,13.10
2022-11-17T08:21:16.424Z,13.10
2022-11-17T08:23:43.797Z,13.20
2022-11-17T08:26:11.770Z,13.20
2022-11-17T08:28:39.586Z,13.30
2022-11-17T08:31:08.017Z,13.40
2022-11-17T08:33:35.978Z,13.50
2022-11-17T08:36:07.109Z,13.60
2022-11-17T08:38:35.344Z,14.00
2022-11-17T08:41:05.988Z,14.00
2022-11-17T08:43:34.609Z,14.00
2022-11-17T08:46:02.722Z,14.00
2022-11-17T08:48:31.621Z,14.10
2022-11-17T08:51:04.296Z,14.10
2022-11-17T08:53:31.830Z,15.00
2022-11-17T08:55:59.536Z,17.70
2022-11-17T08:58:26.810Z,19.80
2022-11-17T09:00:54.037Z,21.00
2022-11-17T09:03:21.215Z,21.30
2022-11-17T09:05:48.427Z,21.70
2022-11-17T09:08:43.804Z,22.00
2022-11-17T09:11:06.449Z,22.30
2022-11-17T09:13:33.895Z,22.60
2022-11-17T09:16:02.075Z,22.90
2022-11-17T09:18:29.533Z,23.00
2022-11-17T09:21:04.253Z,23.20
2022-11-17T09:23:32.226Z,23.40
2022-11-17T09:26:03.624Z,23.50
2022-11-17T09:28:30.727Z,23.60
2022-11-17T09:31:00.394Z,23.70
2022-11-17T09:33:29.003Z,23.80
2022-11-17T09:35:59.377Z,22.40
2022-11-17T09:38:26.578Z,20.90
2022-11-17T09:40:55.941Z,18.60
2022-11-17T09:43:27.637Z,18.40
2022-11-17T09:45:57.480Z,17.90
2022-11-17T09:48:51.202Z,17.40
2022-11-17T09:51:20.580Z,17.30
2022-11-17T09:53:56.528Z,17.10
2022-11-17T09:56:26.172Z,16.80
2022-11-17T09:58:55.292Z,16.70
2022-11-17T10:01:22.548Z,16.70
2022-11-17T10:03:50.612Z,16.50
2022-11-17T10:06:23.612Z,16.50
2022-11-17T10:08:58.533Z,16.40
2022-11-17T10:11:44.677Z,16.50
2022-11-17T10:14:11.872Z,16.40
2022-11-17T10:16:40.509Z,16.20
2022-11-17T10:19:13.465Z,16.10
2022-11-17T10:21:40.595Z,16.00
2022-11-17T10:24:07.990Z,16.10
2022-11-17T10:26:45.732Z,16.00
2022-11-17T10:29:14.260Z,15.90
2022-11-17T10:31:45.549Z,15.80
2022-11-17T10:34:31.956Z,15.80
2022-11-17T10:37:06.698Z,15.80
2022-11-17T10:39:35.586Z,15.80
2022-11-17T10:42:11.048Z,15.80
2022-11-17T10:44:40.691Z,15.80
2022-11-17T10:47:23.707Z,15.80
2022-11-17T10:50:05.031Z,15.90
2022-11-17T10:52:32.176Z,16.10
2022-11-17T10:55:18.492Z,16.40
2022-11-17T10:57:47.716Z,16.90
2022-11-17T11:00:35.210Z,17.30
2022-11-17T11:03:22.672Z,17.30
2022-11-17T11:05:56.951Z,17.10
2022-11-17T11:08:25.331Z,16.90
2022-11-17T11:10:53.247Z,16.90
2022-11-17T11:13:25.720Z,17.20
2022-11-17T11:15:53.589Z,17.70
2022-11-17T11:18:20.788Z,17.70
2022-11-17T11:20:54.113Z,17.70
2022-11-17T11:23:30.873Z,17.60
2022-11-17T11:26:07.305Z,17.50
2022-11-17T11:28:46.984Z,17.30
2022-11-17T11:31:24.238Z,17.10
2022-11-17T11:34:00.740Z,17.30
2022-11-17T11:36:36.175Z,17.40
2022-11-17T11:39:21.548Z,17.60
2022-11-17T11:42:11.859Z,17.50
2022-11-17T11:44:39.015Z,17.40
2022-11-17T11:47:21.756Z,17.30
2022-11-17T11:49:51.533Z,17.30
2022-11-17T11:52:22.857Z,17.40
2022-11-17T11:54:59.114Z,17.60
2022-11-17T11:57:28.921Z,17.20
2022-11-17T12:00:03.705Z,17.20
2022-11-17T12:02:41.518Z,16.90
2022-11-17T12:05:11.453Z,16.40
2022-11-17T12:07:41.541Z,16.30
2022-11-17T12:10:11.488Z,16.50
2022-11-17T12:12:39.614Z,16.90
2022-11-17T12:15:09.554Z,17.00
2022-11-17T12:17:37.572Z,16.90
2022-11-17T12:20:24.760Z,17.10
2022-11-17T12:22:59.966Z,17.10
2022-11-17T12:25:31.362Z,17.10
2022-11-17T12:27:58.466Z,16.90
2022-11-17T12:30:34.721Z,16.80
2022-11-17T12:33:04.648Z,16.50
2022-11-17T12:35:33.001Z,16.60
2022-11-17T12:38:15.700Z,16.50
2022-11-17T12:40:52.503Z,16.40
2022-11-17T12:43:21.504Z,16.00
2022-11-17T12:45:54.724Z,15.60
2022-11-17T12:48:44.326Z,15.50
2022-11-17T12:51:30.300Z,15.40
2022-11-17T12:54:04.641Z,15.50
2022-11-17T12:56:41.120Z,15.60
2022-11-17T12:59:20.420Z,15.50
2022-11-17T13:02:07.817Z,15.30
2022-11-17T13:04:36.541Z,15.30
2022-11-17T13:07:05.310Z,15.40
2022-11-17T13:09:36.585Z,15.40
2022-11-17T13:12:07.449Z,15.50
2022-11-17T13:14:35.823Z,15.50
2022-11-17T13:17:03.222Z,15.30
2022-11-17T13:19:37.937Z,15.30
2022-11-17T13:22:10.947Z,15.60
2022-11-17T13:24:39.176Z,15.60
2022-11-17T13:27:16.791Z,15.70
2022-11-17T13:29:44.097Z,15.50
2022-11-17T13:32:12.278Z,15.40
2022-11-17T13:34:59.984Z,15.30
2022-11-17T13:37:27.903Z,15.30
2022-11-17T13:39:55.053Z,15.20
2022-11-17T13:42:23.549Z,15.10
2022-11-17T13:44:50.990Z,14.90
2022-11-17T13:47:20.654Z,15.10
2022-11-17T13:49:48.369Z,14.70
2022-11-17T13:52:43.581Z,14.70
2022-11-17T13:55:18.222Z,14.70
2022-11-17T13:57:54.457Z,14.60
2022-11-17T14:00:21.906Z,14.60
2022-11-17T14:02:58.850Z,14.70
2022-11-17T14:05:29.629Z,14.60
2022-11-17T14:07:57.720Z,14.60
2022-11-17T14:10:25.227Z,14.50
2022-11-17T14:13:01.508Z,14.50
2022-11-17T14:15:29.923Z,14.70
2022-11-17T14:17:58.368Z,14.80
2022-11-17T14:20:25.623Z,14.70
2022-11-17T14:22:59.993Z,14.70
2022-11-17T14:25:27.586Z,14.70
2022-11-17T14:27:54.875Z,14.50
2022-11-17T14:30:22.450Z,14.40
2022-11-17T14:32:49.581Z,14.40
2022-11-17T14:37:48.833Z,14.30
2022-11-17T14:40:17.893Z,14.10
2022-11-17T14:42:45.070Z,14.20
2022-11-17T14:45:14.292Z,14.00
2022-11-17T14:47:41.996Z,14.00
2022-11-17T14:50:14.150Z,14.00
2022-11-17T14:52:42.483Z,13.90
2022-11-17T14:55:10.169Z,13.90
2022-11-17T14:57:37.645Z,13.90
2022-11-17T15:00:05.610Z,13.90
2022-11-17T15:02:33.423Z,13.80
2022-11-17T15:05:00.993Z,13.70
2022-11-17T15:07:28.586Z,13.70
2022-11-17T15:09:55.759Z,13.70
2022-11-17T15:12:23.019Z,13.60
2022-11-17T15:14:50.414Z,13.50
2022-11-17T15:17:17.629Z,13.50
2022-11-17T15:19:45.404Z,13.50
2022-11-17T15:22:12.524Z,13.50
2022-11-17T15:24:39.651Z,13.60
2022-11-17T15:27:06.875Z,13.50
2022-11-17T15:29:34.031Z,13.50
2022-11-17T15:32:01.190Z,13.50
2022-11-17T15:34:28.466Z,13.50
2022-11-17T15:36:55.604Z,13.50
2022-11-17T15:39:22.830Z,13.40
2022-11-17T15:41:50.767Z,13.50
2022-11-17T15:44:21.103Z,13.50
2022-11-17T15:46:48.315Z,13.40
2022-11-17T15:49:15.820Z,13.40
2022-11-17T15:51:43.171Z,13.40
2022-11-17T15:54:15.122Z,13.40
2022-11-17T15:56:46.919Z,13.40
2022-11-17T15:59:14.531Z,13.40
2022-11-17T16:01:42.116Z,13.40
2022-11-17T16:04:10.549Z,13.40
2022-11-17T16:06:38.936Z,13.60
2022-11-17T16:09:08.853Z,13.80
2022-11-17T16:11:36.551Z,13.90
2022-11-17T16:14:04.628Z,14.00
2022-11-17T16:16:33.018Z,14.10
2022-11-17T16:19:00.568Z,14.10
2022-11-17T16:21:27.736Z,14.10
2022-11-17T16:23:56.298Z,14.10
2022-11-17T16:26:25.464Z,14.00
2022-11-17T16:28:59.404Z,14.10
2022-11-17T16:31:27.545Z,14.10
2022-11-17T16:33:59.152Z,14.10
2022-11-17T16:36:32.844Z,14.10
2022-11-17T16:39:04.293Z,14.10
2022-11-17T16:41:32.833Z,14.10
2022-11-17T16:44:00.253Z,14.10
2022-11-17T16:46:29.216Z,14.10
2022-11-17T16:48:56.834Z,14.10
2022-11-17T16:51:24.785Z,14.10
2022-11-17T16:53:56.089Z,14.10
2022-11-17T16:56:23.487Z,14.10
2022-11-17T16:58:50.715Z,14.10
2022-11-17T17:01:19.608Z,14.10
2022-11-17T17:03:46.748Z,14.10
2022-11-17T17:06:15.520Z,14.10
2022-11-17T17:08:42.885Z,14.10
2022-11-17T17:11:11.218Z,14.10
2022-11-17T17:13:38.459Z,14.00
2022-11-17T17:16:09.666Z,14.30
2022-11-17T17:18:37.244Z,14.50
2022-11-17T17:21:04.564Z,14.40
2022-11-17T17:23:32.138Z,14.30
2022-11-17T17:26:00.205Z,14.20
2022-11-17T17:28:28.987Z,14.20
2022-11-17T17:30:56.211Z,14.20
2022-11-17T17:33:23.364Z,14.20
2022-11-17T17:35:50.604Z,14.20
2022-11-17T17:38:17.967Z,14.20
2022-11-17T17:40:45.148Z,14.20
2022-11-17T17:43:12.341Z,14.20
2022-11-17T17:45:39.548Z,14.20
2022-11-17T17:48:07.444Z,14.20
2022-11-17T17:50:34.568Z,14.20
2022-11-17T17:53:01.820Z,14.20
2022-11-17T17:55:30.027Z,14.10
2022-11-17T17:57:57.124Z,14.10
2022-11-17T18:00:24.271Z,14.20
2022-11-17T18:02:51.433Z,14.20
2022-11-17T18:05:22.376Z,14.20
2022-11-17T18:07:49.719Z,14.20
2022-11-17T18:10:17.051Z,14.20
2022-11-17T18:12:44.228Z,14.20
2022-11-17T18:15:11.508Z,14.20
2022-11-17T18:17:38.665Z,14.20
2022-11-17T18:20:06.119Z,14.20
2022-11-17T18:22:33.259Z,14.20
2022-11-17T18:25:00.571Z,14.20
2022-11-17T18:27:27.749Z,14.20
2022-11-17T18:29:54.926Z,14.20
2022-11-17T18:32:22.090Z,14.20
2022-11-17T18:34:49.301Z,14.20
2022-11-17T18:37:16.496Z,14.20
2022-11-17T18:39:43.704Z,14.20
2022-11-17T18:42:10.849Z,14.20
2022-11-17T18:44:38.038Z,14.20
2022-11-17T18:47:05.234Z,14.20
2022-11-17T18:49:34.562Z,14.20
2022-11-17T18:52:01.927Z,14.10
2022-11-17T18:54:29.094Z,14.10
2022-11-17T18:56:56.443Z,14.10
2022-11-17T18:59:23.642Z,14.10
2022-11-17T19:01:50.929Z,14.10
2022-11-17T19:04:18.328Z,14.20
2022-11-17T19:06:45.600Z,14.20
2022-11-17T19:09:13.522Z,14.10
2022-11-17T19:11:40.908Z,14.10
2022-11-17T19:14:08.085Z,14.10
2022-11-17T19:16:44.002Z,14.10
2022-11-17T19:19:13.472Z,14.20
2022-11-17T19:21:41.441Z,14.20
2022-11-17T19:24:09.052Z,14.10
2022-11-17T19:26:36.337Z,14.20
2022-11-17T19:29:04.839Z,14.10
2022-11-17T19:31:32.606Z,14.10
2022-11-17T19:33:59.813Z,14.10
2022-11-17T19:36:30.743Z,14.10
2022-11-17T19:38:59.461Z,14.10
2022-11-17T19:41:27.767Z,14.10
2022-11-17T19:43:55.983Z,14.20
2022-11-17T19:46:24.032Z,14.10
2022-11-17T19:48:51.245Z,14.10
2022-11-17T19:51:22.503Z,14.10
2022-11-17T19:53:51.665Z,14.20
2022-11-17T19:56:19.304Z,14.10
2022-11-17T19:58:47.052Z,14.10
2022-11-17T20:01:22.009Z,14.10
2022-11-17T20:03:49.334Z,14.10
2022-11-17T20:06:17.873Z,14.10
2022-11-17T20:08:45.594Z,14.10
2022-11-17T20:11:14.096Z,14.10
2022-11-17T20:13:44.141Z,14.10
2022-11-17T20:16:15.310Z,14.10
2022-11-17T20:18:43.061Z,14.10
2022-11-17T20:21:10.741Z,14.10
2022-11-17T20:23:38.301Z,14.10
2022-11-17T20:26:06.437Z,14.10
2022-11-17T20:28:34.179Z,14.10
2022-11-17T20:31:08.014Z,14.10
2022-11-17T20:33:35.559Z,14.10
2022-11-17T20:36:03.029Z,14.10
2022-11-17T20:38:30.483Z,14.10
2022-11-17T20:40:58.768Z,14.10
2022-11-17T20:43:26.632Z,14.10
2022-11-17T20:45:54.496Z,14.10
2022-11-17T20:48:22.204Z,14.10
2022-11-17T20:50:58.941Z,14.00
2022-11-17T20:53:26.998Z,14.10
2022-11-17T20:55:57.710Z,14.10
2022-11-17T20:58:26.061Z,14.10
2022-11-17T21:00:53.745Z,14.10
2022-11-17T21:03:21.491Z,14.10
2022-11-17T21:05:59.624Z,14.10
2022-11-17T21:08:27.655Z,14.10
2022-11-17T21:10:58.472Z,14.00
2022-11-17T21:13:26.074Z,14.00
2022-11-17T21:16:12.224Z,14.10
2022-11-17T21:18:40.380Z,14.10
2022-11-17T21:21:09.109Z,14.10
2022-11-17T21:23:37.204Z,14.10
2022-11-17T21:26:05.338Z,14.10
2022-11-17T21:28:32.598Z,14.10
2022-11-17T21:31:07.838Z,14.10
2022-11-17T21:33:35.768Z,14.10
2022-11-17T21:36:04.031Z,14.00
2022-11-17T21:38:31.263Z,14.00
2022-11-17T21:41:05.595Z,14.00
2022-11-17T21:43:35.397Z,14.10
2022-11-17T21:46:03.464Z,14.00
2022-11-17T21:48:30.716Z,14.00
2022-11-17T21:50:57.849Z,14.00
2022-11-17T21:53:24.986Z,14.00
2022-11-17T21:55:52.295Z,14.00
2022-11-17T21:58:19.550Z,14.00
2022-11-17T22:00:46.678Z,14.00
2022-11-17T22:03:14.235Z,14.00
2022-11-17T22:05:41.455Z,14.00
2022-11-17T22:08:08.759Z,14.00
2022-11-17T22:10:36.311Z,14.00
2022-11-17T22:13:04.844Z,14.00
2022-11-17T22:15:32.048Z,14.00
2022-11-17T22:17:59.176Z,14.00
2022-11-17T22:20:26.293Z,14.00
2022-11-17T22:22:56.356Z,14.00
2022-11-17T22:25:44.082Z,14.00
2022-11-17T22:28:11.779Z,14.00
2022-11-17T22:30:39.545Z,14.00
2022-11-17T22:33:06.790Z,14.00
2022-11-17T22:35:33.963Z,14.00
2022-11-17T22:38:01.131Z,14.00
2022-11-17T22:40:28.276Z,14.00
2022-11-17T22:42:55.486Z,14.00
2022-11-17T22:45:22.696Z,14.00
2022-11-17T22:47:50.228Z,14.00
2022-11-17T22:50:17.383Z,14.00
2022-11-17T22:52:44.542Z,14.00
2022-11-17T22:55:11.682Z,14.00
2022-11-17T22:57:38.818Z,14.00
2022-11-17T23:00:06.296Z,14.00
2022-11-17T23:02:33.532Z,14.00
2022-11-17T23:05:00.714Z,14.00
2022-11-17T23:07:28.026Z,14.00
2022-11-17T23:09:55.205Z,14.00
2022-11-17T23:12:22.404Z,14.00
2022-11-17T23:14:49.538Z,14.00
2022-11-17T23:17:17.191Z,14.00
2022-11-17T23:19:44.433Z,14.00
2022-11-17T23:22:12.132Z,14.00
2022-11-17T23:24:39.301Z,14.00
2022-11-17T23:27:07.036Z,14.00
2022-11-17T23:29:34.162Z,14.00
2022-11-17T23:32:01.341Z,14.00
2022-11-17T23:34:28.549Z,14.00
2022-11-17T23:36:59.510Z,14.00
2022-11-17T23:39:29.534Z,14.00
2022-11-17T23:41:56.653Z,14.00
2022-11-17T23:44:23.793Z,14.00
2022-11-17T23:46:50.977Z,14.00
2022-11-17T23:49:18.499Z,14.00
2022-11-17T23:51:45.907Z,14.00
2022-11-17T23:54:13.284Z,14.00
2022-11-17T23:56:40.575Z,14.00
2022-11-17T23:59:08.252Z,14.00
